Weather observations for the past three days for
Augusta Daniel Field
Imperial (Metric)
Date Time (edt) Wind (mph) Vis. (mi.) Weather Sky Cond. Temperature (ºF) Relative Humidity Wind Chill (°F) Heat Index (°F) Pressure Precipitation (in)
Air Dwpt 6 hour altimeter (in) sea level (mb) 1 hr 3 hr 6 hr
Max. Min.
06 04:53 SE 6 10.00 A Few Clouds FEW070 59 55 87% 29.97 1014.5
06 03:53 SE 5 10.00 Fair CLR 61 55 81% 29.98 1014.8
06 02:53 SE 5 10.00 Fair CLR 62.1 55 78% 29.98 1014.7
06 01:53 SE 6 10.00 Fair CLR 64 55 78.1 64 73% 29.98 1014.9
06 00:53 S 8 10.00 Fair CLR 66 55 68% 30 1015.3
05 23:53 SE 8 10.00 Fair CLR 66.9 55 66% 30 1015.3
05 22:53 S 10 10.00 Fair CLR 69.1 55.9 63% 29.99 1015.2
05 21:53 SE 9 10.00 Fair CLR 71.1 55 57% 29.98 1014.8
05 20:53 S 3 10.00 Fair CLR 75.9 48.9 39% 78 29.96 1014.0
05 19:53 S 6 10.00 Fair CLR 79 48 82 78.1 34% 79 29.94 1013.5
05 18:53 S 9 10.00 Fair CLR 81 48 32% 80 29.95 1013.8
05 17:53 S 5 10.00 Fair CLR 81 48 32% 80 29.95 1013.7
05 16:53 S 10 G 21 10.00 Fair CLR 82 48 31% 81 29.96 1013.9
05 15:53 S 8 10.00 Mostly Cloudy BKN075 81 48 32% 80 29.98 1014.7
05 14:53 S 7 10.00 Mostly Cloudy BKN070 79 48 34% 79 30.01 1015.6
05 13:53 S 10 G 23 10.00 Partly Cloudy SCT070 80.1 48.9 80.1 57.9 34% 79 30.03 1016.5
05 12:53 Vrbl 7 G 16 10.00 Partly Cloudy SCT055 SCT070 77 53.1 43% 78 30.03 1016.6
05 11:53 S 9 10.00 Fair CLR 75 54 48% 78 30.05 1017.0
05 10:53 SW 7 10.00 Fair CLR 73 55.9 55% 30.06 1017.3
05 09:53 S 10 10.00 Fair CLR 69.1 55 61% 30.05 1017.2
05 08:53 S 6 10.00 Fair CLR 64 54 70% 30.05 1017.2
05 07:53 SE 5 10.00 Fair CLR 57.9 52 62.1 55.9 81% 30.04 1016.8
05 06:53 SE 6 10.00 Fair CLR 55.9 51.1 84% 30.02 1016.3
05 05:53 S 6 10.00 Fair CLR 57.9 51.1 78% 30.02 1016.0
05 04:53 S 3 10.00 Fair CLR 59 51.1 75% 30.02 1016.1
05 03:53 Vrbl 5 10.00 Fair CLR 60.1 50 70% 30.01 1015.8
05 02:53 S 5 10.00 Fair CLR 60.1 50 70% 30 1015.6
05 01:53 S 3 10.00 Fair CLR 61 48.9 73.9 61 65% 30.02 1016.0
05 00:53 S 5 10.00 Fair CLR 63 48.9 60% 30.02 1016.3
04 23:53 S 5 10.00 Fair CLR 64 48.9 58% 30.03 1016.4
04 22:53 SE 6 10.00 Fair CLR 66 48.9 54% 30.03 1016.5
04 21:53 SE 7 10.00 Fair CLR 69.1 45 42% 30.01 1015.9
04 20:53 S 3 10.00 Fair CLR 72 44.1 37% 29.99 1015.1
04 19:53 S 5 10.00 Fair CLR 73.9 42.1 79 73.9 32% 29.98 1014.8
04 18:53 S 9 10.00 Fair CLR 75.9 39 26% 77 29.98 1014.9
04 17:53 S 9 10.00 Fair CLR 77 39.9 26% 77 29.98 1014.9
04 16:53 SW 9 10.00 Fair CLR 79 39.9 25% 78 29.98 1014.8
04 15:53 S 9 10.00 Fair CLR 78.1 39 25% 78 29.99 1015.1
04 14:53 Vrbl 5 10.00 Fair CLR 77 39 26% 77 30.01 1015.9
04 13:53 Vrbl 3 10.00 Fair CLR 75 37.9 75.9 54 26% 77 30.03 1016.6
04 12:53 Calm 10.00 Fair CLR 73.9 39 28% 30.05 1017.3
04 11:53 Calm 10.00 Fair CLR 72 39 30% 30.07 1017.9
04 10:53 Vrbl 7 10.00 Fair CLR 70 39 32% 30.08 1018.2
04 09:53 Calm 10.00 Fair CLR 64.9 46 51% 30.09 1018.4
04 08:53 Calm 10.00 Fair CLR 57.9 44.1 60% 30.09 1018.6
04 07:53 Calm 10.00 Fair CLR 54 44.1 57 50 69% 30.08 1018.5
04 06:53 Calm 10.00 Fair CLR 50 46.9 89% 30.07 1017.9
04 05:53 Calm 10.00 Fair CLR 52 44.1 75% 30.06 1017.8
04 04:53 Calm 10.00 Fair CLR 51.1 44.1 77% 30.06 1017.8
04 02:53 SE 5 10.00 Fair CLR 54 43 67% 30.06 1017.6
04 01:53 Calm 10.00 Fair CLR 57 39.9 69.1 57 53% 30.08 1018.2
04 00:53 Calm 10.00 Fair CLR 60.1 37.9 44% 30.07 1018.0
03 23:53 Calm 10.00 Fair CLR 60.1 39 46% 30.07 1017.9
03 22:53 Calm 10.00 Fair CLR 63 37.9 40% 30.07 1017.9
03 21:53 Calm 10.00 Fair CLR 64.9 36 34% 30.06 1017.5
03 20:53 Calm 10.00 Fair CLR 66.9 37.9 35% 30.03 1016.7
03 19:53 Calm 10.00 Fair CLR 69.1 36 73 66.9 30% 30.02 1016.4
03 18:53 Calm 10.00 Fair CLR 71.1 37 29% 30.02 1016.4
03 17:53 Vrbl 5 10.00 Fair CLR 73 37.9 28% 30.03 1016.6
03 16:53 Calm 10.00 Fair CLR 72 39.9 31% 30.03 1016.7
03 15:53 Vrbl 3 10.00 Fair CLR 69.1 39 33% 30.06 1017.5
03 14:53 Vrbl 3 10.00 Fair CLR 69.1 39 33% 30.09 1018.6
03 13:53 Vrbl 7 10.00 Fair CLR 66.9 37 69.1 48.9 33% 30.12 1019.5
03 12:53 Calm 10.00 A Few Clouds FEW060 66 37 34% 30.13 1019.9
03 11:53 W 3 10.00 Fair CLR 64 42.1 45% 30.15 1020.5
03 10:53 Vrbl 3 10.00 Fair CLR 60.1 45 58% 30.14 1020.5
03 09:53 NE 7 10.00 Fair CLR 55.9 46 70% 30.14 1020.5
03 08:53 N 6 5.00 Fog/Mist OVC002 52 52 100% 30.13 1020.1
03 07:53 N 5 0.75 Fog/Mist VV002 48.9 48.9 53.1 46.9 100% 48 30.11 1019.5
03 06:53 N 5 0.50 Fog VV001 46.9 46.9 100% 45 30.09 1018.8
03 05:53 N 3 10.00 Fair CLR 50 48.9 96% 30.07 1018.0
Date Time (edt) Wind (mph) Vis. (mi.) Weather Sky Cond. Air Dwpt Max. Min. Relative Humidity Wind Chill (°F) Heat Index (°F) altimeter (in) sea level (mb) 1 hr 3 hr 6 hr
6 hour
Temperature (ºF) Pressure Precipitation (in)